sensor_id;sensor_type;location;lat;lon;timestamp;P1;durP1;ratioP1;P2;durP2;ratioP2
5955;SDS011;3004;48.080;11.600;2023-02-13T00:00:50;70.30;;;8.00;;
5955;SDS011;3004;48.080;11.600;2023-02-13T00:03:31;70.20;;;7.90;;
5955;SDS011;3004;48.080;11.600;2023-02-13T00:05:59;70.17;;;7.83;;
5955;SDS011;3004;48.080;11.600;2023-02-13T00:08:25;70.07;;;8.10;;
5955;SDS011;3004;48.080;11.600;2023-02-13T00:10:54;70.10;;;7.87;;
5955;SDS011;3004;48.080;11.600;2023-02-13T00:13:21;70.30;;;7.87;;
5955;SDS011;3004;48.080;11.600;2023-02-13T00:15:54;70.37;;;8.17;;
5955;SDS011;3004;48.080;11.600;2023-02-13T00:18:21;70.10;;;8.10;;
5955;SDS011;3004;48.080;11.600;2023-02-13T00:20:55;70.63;;;8.63;;
5955;SDS011;3004;48.080;11.600;2023-02-13T00:23:24;70.60;;;8.20;;
5955;SDS011;3004;48.080;11.600;2023-02-13T00:25:55;74.37;;;8.87;;
5955;SDS011;3004;48.080;11.600;2023-02-13T00:28:22;70.07;;;8.30;;
5955;SDS011;3004;48.080;11.600;2023-02-13T00:30:50;70.07;;;8.07;;
5955;SDS011;3004;48.080;11.600;2023-02-13T00:33:17;70.00;;;8.07;;
5955;SDS011;3004;48.080;11.600;2023-02-13T00:35:44;70.37;;;8.70;;
5955;SDS011;3004;48.080;11.600;2023-02-13T00:38:30;72.33;;;9.23;;
5955;SDS011;3004;48.080;11.600;2023-02-13T00:40:59;70.57;;;9.00;;
5955;SDS011;3004;48.080;11.600;2023-02-13T00:43:28;69.87;;;8.60;;
5955;SDS011;3004;48.080;11.600;2023-02-13T00:45:56;69.37;;;8.10;;
5955;SDS011;3004;48.080;11.600;2023-02-13T00:48:23;69.53;;;8.13;;
5955;SDS011;3004;48.080;11.600;2023-02-13T00:50:51;69.40;;;8.17;;
5955;SDS011;3004;48.080;11.600;2023-02-13T00:53:18;76.17;;;9.37;;
5955;SDS011;3004;48.080;11.600;2023-02-13T00:55:46;69.30;;;8.70;;
5955;SDS011;3004;48.080;11.600;2023-02-13T00:58:18;70.00;;;9.67;;
5955;SDS011;3004;48.080;11.600;2023-02-13T01:00:47;69.17;;;8.30;;
5955;SDS011;3004;48.080;11.600;2023-02-13T01:03:16;69.37;;;8.37;;
5955;SDS011;3004;48.080;11.600;2023-02-13T01:05:44;69.50;;;8.90;;
5955;SDS011;3004;48.080;11.600;2023-02-13T01:08:15;69.43;;;8.90;;
5955;SDS011;3004;48.080;11.600;2023-02-13T01:10:44;70.00;;;9.67;;
5955;SDS011;3004;48.080;11.600;2023-02-13T01:13:13;68.97;;;8.43;;
5955;SDS011;3004;48.080;11.600;2023-02-13T01:15:44;69.07;;;8.40;;
5955;SDS011;3004;48.080;11.600;2023-02-13T01:18:11;69.13;;;8.43;;
5955;SDS011;3004;48.080;11.600;2023-02-13T01:20:39;69.17;;;8.50;;
5955;SDS011;3004;48.080;11.600;2023-02-13T01:23:06;69.43;;;9.10;;
5955;SDS011;3004;48.080;11.600;2023-02-13T01:25:38;69.57;;;9.10;;
5955;SDS011;3004;48.080;11.600;2023-02-13T01:28:05;77.63;;;10.30;;
5955;SDS011;3004;48.080;11.600;2023-02-13T01:30:32;68.97;;;8.57;;
5955;SDS011;3004;48.080;11.600;2023-02-13T01:33:05;72.23;;;10.97;;
5955;SDS011;3004;48.080;11.600;2023-02-13T01:35:32;69.60;;;8.90;;
5955;SDS011;3004;48.080;11.600;2023-02-13T01:38:04;68.77;;;8.63;;
5955;SDS011;3004;48.080;11.600;2023-02-13T01:40:31;72.90;;;11.00;;
5955;SDS011;3004;48.080;11.600;2023-02-13T01:42:57;68.30;;;8.83;;
5955;SDS011;3004;48.080;11.600;2023-02-13T01:45:25;68.43;;;8.90;;
5955;SDS011;3004;48.080;11.600;2023-02-13T01:47:54;68.43;;;8.67;;
5955;SDS011;3004;48.080;11.600;2023-02-13T01:50:32;68.57;;;8.87;;
5955;SDS011;3004;48.080;11.600;2023-02-13T01:53:03;68.90;;;9.50;;
5955;SDS011;3004;48.080;11.600;2023-02-13T01:55:36;68.27;;;8.77;;
5955;SDS011;3004;48.080;11.600;2023-02-13T01:58:15;68.23;;;8.57;;
5955;SDS011;3004;48.080;11.600;2023-02-13T02:00:48;68.27;;;8.73;;
5955;SDS011;3004;48.080;11.600;2023-02-13T02:03:16;68.10;;;8.73;;
5955;SDS011;3004;48.080;11.600;2023-02-13T02:05:49;68.37;;;8.73;;
5955;SDS011;3004;48.080;11.600;2023-02-13T02:08:20;68.77;;;9.93;;
5955;SDS011;3004;48.080;11.600;2023-02-13T02:10:49;68.17;;;8.67;;
5955;SDS011;3004;48.080;11.600;2023-02-13T02:13:17;67.87;;;8.77;;
5955;SDS011;3004;48.080;11.600;2023-02-13T02:15:56;68.57;;;9.30;;
5955;SDS011;3004;48.080;11.600;2023-02-13T02:18:23;68.33;;;8.90;;
5955;SDS011;3004;48.080;11.600;2023-02-13T02:24:11;71.00;;;9.83;;
5955;SDS011;3004;48.080;11.600;2023-02-13T02:30:12;68.07;;;8.77;;
5955;SDS011;3004;48.080;11.600;2023-02-13T02:33:01;69.00;;;9.73;;
5955;SDS011;3004;48.080;11.600;2023-02-13T02:35:37;68.17;;;8.70;;
5955;SDS011;3004;48.080;11.600;2023-02-13T02:38:13;68.07;;;8.83;;
5955;SDS011;3004;48.080;11.600;2023-02-13T02:40:52;68.17;;;8.60;;
5955;SDS011;3004;48.080;11.600;2023-02-13T02:43:29;68.20;;;8.67;;
5955;SDS011;3004;48.080;11.600;2023-02-13T02:46:07;68.33;;;8.63;;
5955;SDS011;3004;48.080;11.600;2023-02-13T02:48:46;67.97;;;8.53;;
5955;SDS011;3004;48.080;11.600;2023-02-13T02:51:37;68.53;;;8.53;;
5955;SDS011;3004;48.080;11.600;2023-02-13T02:54:14;68.43;;;8.67;;
5955;SDS011;3004;48.080;11.600;2023-02-13T02:57:12;68.53;;;8.53;;
5955;SDS011;3004;48.080;11.600;2023-02-13T02:59:42;68.43;;;8.60;;
5955;SDS011;3004;48.080;11.600;2023-02-13T03:02:29;68.47;;;8.87;;
5955;SDS011;3004;48.080;11.600;2023-02-13T03:05:20;68.50;;;8.60;;
5955;SDS011;3004;48.080;11.600;2023-02-13T03:08:10;68.77;;;9.57;;
5955;SDS011;3004;48.080;11.600;2023-02-13T03:10:39;68.40;;;8.47;;
5955;SDS011;3004;48.080;11.600;2023-02-13T03:13:40;68.47;;;8.37;;
5955;SDS011;3004;48.080;11.600;2023-02-13T03:16:11;68.83;;;8.87;;
5955;SDS011;3004;48.080;11.600;2023-02-13T03:19:02;68.80;;;8.50;;
5955;SDS011;3004;48.080;11.600;2023-02-13T03:21:50;68.27;;;8.47;;
5955;SDS011;3004;48.080;11.600;2023-02-13T03:24:44;68.80;;;8.60;;
5955;SDS011;3004;48.080;11.600;2023-02-13T03:27:17;68.70;;;8.63;;
5955;SDS011;3004;48.080;11.600;2023-02-13T03:30:15;68.77;;;8.70;;
5955;SDS011;3004;48.080;11.600;2023-02-13T03:32:56;68.77;;;8.63;;
5955;SDS011;3004;48.080;11.600;2023-02-13T03:35:34;68.67;;;8.47;;
5955;SDS011;3004;48.080;11.600;2023-02-13T03:38:25;68.67;;;8.57;;
5955;SDS011;3004;48.080;11.600;2023-02-13T03:40:57;68.30;;;8.47;;
5955;SDS011;3004;48.080;11.600;2023-02-13T03:43:47;68.57;;;8.47;;
5955;SDS011;3004;48.080;11.600;2023-02-13T03:46:21;68.47;;;8.50;;
5955;SDS011;3004;48.080;11.600;2023-02-13T03:48:56;68.37;;;8.50;;
5955;SDS011;3004;48.080;11.600;2023-02-13T03:51:47;73.20;;;10.40;;
5955;SDS011;3004;48.080;11.600;2023-02-13T03:54:30;68.77;;;8.90;;
5955;SDS011;3004;48.080;11.600;2023-02-13T03:57:25;68.57;;;8.47;;
5955;SDS011;3004;48.080;11.600;2023-02-13T04:00:14;68.43;;;8.50;;
5955;SDS011;3004;48.080;11.600;2023-02-13T04:02:46;69.00;;;9.10;;
5955;SDS011;3004;48.080;11.600;2023-02-13T04:05:23;68.60;;;8.77;;
5955;SDS011;3004;48.080;11.600;2023-02-13T04:07:53;68.70;;;8.37;;
5955;SDS011;3004;48.080;11.600;2023-02-13T04:10:21;68.67;;;8.33;;
5955;SDS011;3004;48.080;11.600;2023-02-13T04:12:54;68.73;;;8.33;;
5955;SDS011;3004;48.080;11.600;2023-02-13T04:15:29;69.17;;;9.13;;
5955;SDS011;3004;48.080;11.600;2023-02-13T04:18:02;69.00;;;8.23;;
5955;SDS011;3004;48.080;11.600;2023-02-13T04:20:36;69.17;;;8.20;;
5955;SDS011;3004;48.080;11.600;2023-02-13T04:23:05;69.07;;;8.13;;
5955;SDS011;3004;48.080;11.600;2023-02-13T04:25:38;69.00;;;8.13;;
5955;SDS011;3004;48.080;11.600;2023-02-13T04:28:11;69.83;;;8.80;;
5955;SDS011;3004;48.080;11.600;2023-02-13T04:30:40;69.40;;;8.70;;
5955;SDS011;3004;48.080;11.600;2023-02-13T04:33:08;69.57;;;8.20;;
5955;SDS011;3004;48.080;11.600;2023-02-13T04:35:35;69.40;;;8.07;;
5955;SDS011;3004;48.080;11.600;2023-02-13T04:38:02;69.87;;;8.43;;
5955;SDS011;3004;48.080;11.600;2023-02-13T04:40:29;69.40;;;8.10;;
5955;SDS011;3004;48.080;11.600;2023-02-13T04:43:01;69.17;;;7.93;;
5955;SDS011;3004;48.080;11.600;2023-02-13T04:45:28;69.17;;;8.23;;
5955;SDS011;3004;48.080;11.600;2023-02-13T04:47:55;69.30;;;8.10;;
5955;SDS011;3004;48.080;11.600;2023-02-13T04:50:23;69.17;;;8.17;;
5955;SDS011;3004;48.080;11.600;2023-02-13T04:52:52;69.17;;;8.17;;
5955;SDS011;3004;48.080;11.600;2023-02-13T04:55:20;69.27;;;8.00;;
5955;SDS011;3004;48.080;11.600;2023-02-13T04:57:47;69.73;;;7.97;;
5955;SDS011;3004;48.080;11.600;2023-02-13T05:00:19;70.07;;;8.40;;
5955;SDS011;3004;48.080;11.600;2023-02-13T05:02:46;69.87;;;8.30;;
5955;SDS011;3004;48.080;11.600;2023-02-13T05:05:14;69.70;;;7.83;;
5955;SDS011;3004;48.080;11.600;2023-02-13T05:07:41;69.90;;;8.13;;
5955;SDS011;3004;48.080;11.600;2023-02-13T05:10:10;69.77;;;7.73;;
5955;SDS011;3004;48.080;11.600;2023-02-13T05:12:37;70.77;;;8.80;;
5955;SDS011;3004;48.080;11.600;2023-02-13T05:15:05;69.80;;;8.33;;
5955;SDS011;3004;48.080;11.600;2023-02-13T05:17:34;69.83;;;7.63;;
5955;SDS011;3004;48.080;11.600;2023-02-13T05:20:01;69.77;;;7.73;;
5955;SDS011;3004;48.080;11.600;2023-02-13T05:22:28;69.90;;;7.80;;
5955;SDS011;3004;48.080;11.600;2023-02-13T05:25:12;70.57;;;8.30;;
5955;SDS011;3004;48.080;11.600;2023-02-13T05:27:40;69.57;;;7.70;;
5955;SDS011;3004;48.080;11.600;2023-02-13T05:30:07;69.60;;;7.90;;
5955;SDS011;3004;48.080;11.600;2023-02-13T05:32:39;70.33;;;8.30;;
5955;SDS011;3004;48.080;11.600;2023-02-13T05:35:07;69.87;;;8.20;;
5955;SDS011;3004;48.080;11.600;2023-02-13T05:37:41;71.03;;;9.70;;
5955;SDS011;3004;48.080;11.600;2023-02-13T05:40:15;69.83;;;7.70;;
5955;SDS011;3004;48.080;11.600;2023-02-13T05:42:43;69.70;;;7.43;;
5955;SDS011;3004;48.080;11.600;2023-02-13T05:45:16;69.77;;;7.50;;
5955;SDS011;3004;48.080;11.600;2023-02-13T05:47:47;69.70;;;7.30;;
5955;SDS011;3004;48.080;11.600;2023-02-13T05:50:16;69.40;;;7.30;;
5955;SDS011;3004;48.080;11.600;2023-02-13T05:52:47;69.40;;;7.17;;
5955;SDS011;3004;48.080;11.600;2023-02-13T05:55:14;69.60;;;7.60;;
5955;SDS011;3004;48.080;11.600;2023-02-13T05:57:41;69.10;;;7.03;;
5955;SDS011;3004;48.080;11.600;2023-02-13T06:00:08;70.10;;;8.10;;
5955;SDS011;3004;48.080;11.600;2023-02-13T06:02:36;69.70;;;7.23;;
5955;SDS011;3004;48.080;11.600;2023-02-13T06:05:13;69.67;;;7.60;;
5955;SDS011;3004;48.080;11.600;2023-02-13T06:07:41;69.77;;;7.50;;
5955;SDS011;3004;48.080;11.600;2023-02-13T06:10:08;69.60;;;7.33;;
5955;SDS011;3004;48.080;11.600;2023-02-13T06:12:35;69.77;;;7.60;;
5955;SDS011;3004;48.080;11.600;2023-02-13T06:15:02;72.17;;;10.87;;
5955;SDS011;3004;48.080;11.600;2023-02-13T06:17:29;69.77;;;7.50;;
5955;SDS011;3004;48.080;11.600;2023-02-13T06:19:57;69.97;;;8.03;;
5955;SDS011;3004;48.080;11.600;2023-02-13T06:22:26;69.60;;;7.27;;
5955;SDS011;3004;48.080;11.600;2023-02-13T06:24:53;70.07;;;8.00;;
5955;SDS011;3004;48.080;11.600;2023-02-13T06:27:21;69.47;;;7.37;;
5955;SDS011;3004;48.080;11.600;2023-02-13T06:29:48;69.50;;;7.23;;
5955;SDS011;3004;48.080;11.600;2023-02-13T06:32:16;70.30;;;7.83;;
5955;SDS011;3004;48.080;11.600;2023-02-13T06:34:42;69.60;;;7.77;;
5955;SDS011;3004;48.080;11.600;2023-02-13T06:37:09;70.17;;;7.63;;
5955;SDS011;3004;48.080;11.600;2023-02-13T06:39:45;69.40;;;7.37;;
5955;SDS011;3004;48.080;11.600;2023-02-13T06:42:15;69.37;;;7.07;;
5955;SDS011;3004;48.080;11.600;2023-02-13T06:44:43;70.00;;;8.03;;
5955;SDS011;3004;48.080;11.600;2023-02-13T06:47:10;74.80;;;9.53;;
5955;SDS011;3004;48.080;11.600;2023-02-13T06:49:37;68.90;;;6.77;;
5955;SDS011;3004;48.080;11.600;2023-02-13T06:52:05;69.17;;;6.77;;
5955;SDS011;3004;48.080;11.600;2023-02-13T06:54:32;69.43;;;7.10;;
5955;SDS011;3004;48.080;11.600;2023-02-13T06:57:01;69.07;;;6.97;;
5955;SDS011;3004;48.080;11.600;2023-02-13T06:59:28;69.93;;;7.43;;
5955;SDS011;3004;48.080;11.600;2023-02-13T07:01:57;69.17;;;7.10;;
5955;SDS011;3004;48.080;11.600;2023-02-13T07:04:24;68.97;;;6.90;;
5955;SDS011;3004;48.080;11.600;2023-02-13T07:06:55;70.07;;;7.50;;
5955;SDS011;3004;48.080;11.600;2023-02-13T07:09:22;70.90;;;8.33;;
5955;SDS011;3004;48.080;11.600;2023-02-13T07:11:49;68.90;;;7.07;;
5955;SDS011;3004;48.080;11.600;2023-02-13T07:14:18;69.30;;;6.97;;
5955;SDS011;3004;48.080;11.600;2023-02-13T07:16:45;69.30;;;7.00;;
5955;SDS011;3004;48.080;11.600;2023-02-13T07:19:12;71.77;;;8.33;;
5955;SDS011;3004;48.080;11.600;2023-02-13T07:21:39;69.23;;;6.80;;
5955;SDS011;3004;48.080;11.600;2023-02-13T07:24:06;69.67;;;7.40;;
5955;SDS011;3004;48.080;11.600;2023-02-13T07:26:33;68.97;;;6.73;;
5955;SDS011;3004;48.080;11.600;2023-02-13T07:29:00;69.10;;;7.30;;
5955;SDS011;3004;48.080;11.600;2023-02-13T07:31:32;69.00;;;6.67;;
5955;SDS011;3004;48.080;11.600;2023-02-13T07:33:59;69.00;;;6.60;;
5955;SDS011;3004;48.080;11.600;2023-02-13T07:36:26;69.40;;;7.43;;
5955;SDS011;3004;48.080;11.600;2023-02-13T07:38:53;69.37;;;7.20;;
5955;SDS011;3004;48.080;11.600;2023-02-13T07:41:20;70.10;;;7.20;;
5955;SDS011;3004;48.080;11.600;2023-02-13T07:43:53;69.47;;;7.23;;
5955;SDS011;3004;48.080;11.600;2023-02-13T07:46:23;69.30;;;7.43;;
5955;SDS011;3004;48.080;11.600;2023-02-13T07:48:51;71.00;;;8.20;;
5955;SDS011;3004;48.080;11.600;2023-02-13T07:51:20;68.70;;;6.50;;
5955;SDS011;3004;48.080;11.600;2023-02-13T07:53:49;69.17;;;6.70;;
5955;SDS011;3004;48.080;11.600;2023-02-13T07:56:16;69.13;;;6.70;;
5955;SDS011;3004;48.080;11.600;2023-02-13T07:58:44;69.07;;;6.80;;
5955;SDS011;3004;48.080;11.600;2023-02-13T08:01:11;68.83;;;6.20;;
5955;SDS011;3004;48.080;11.600;2023-02-13T08:03:39;68.60;;;6.23;;
5955;SDS011;3004;48.080;11.600;2023-02-13T08:06:10;68.67;;;6.43;;
5955;SDS011;3004;48.080;11.600;2023-02-13T08:08:39;68.57;;;6.20;;
5955;SDS011;3004;48.080;11.600;2023-02-13T08:11:11;68.63;;;6.20;;
5955;SDS011;3004;48.080;11.600;2023-02-13T08:14:05;68.83;;;6.20;;
5955;SDS011;3004;48.080;11.600;2023-02-13T08:16:32;68.77;;;6.57;;
5955;SDS011;3004;48.080;11.600;2023-02-13T08:18:59;68.57;;;6.37;;
5955;SDS011;3004;48.080;11.600;2023-02-13T08:21:28;68.83;;;6.50;;
5955;SDS011;3004;48.080;11.600;2023-02-13T08:23:56;72.73;;;7.57;;
5955;SDS011;3004;48.080;11.600;2023-02-13T08:26:24;69.00;;;6.57;;
5955;SDS011;3004;48.080;11.600;2023-02-13T08:28:51;68.97;;;6.47;;
5955;SDS011;3004;48.080;11.600;2023-02-13T08:31:21;68.87;;;6.40;;
5955;SDS011;3004;48.080;11.600;2023-02-13T08:33:48;69.80;;;7.73;;
5955;SDS011;3004;48.080;11.600;2023-02-13T08:36:16;68.83;;;6.43;;
5955;SDS011;3004;48.080;11.600;2023-02-13T08:38:49;68.67;;;6.30;;
5955;SDS011;3004;48.080;11.600;2023-02-13T08:41:20;68.97;;;6.43;;
5955;SDS011;3004;48.080;11.600;2023-02-13T08:43:49;69.17;;;7.00;;
5955;SDS011;3004;48.080;11.600;2023-02-13T08:46:16;68.60;;;6.40;;
5955;SDS011;3004;48.080;11.600;2023-02-13T08:48:53;68.27;;;6.27;;
5955;SDS011;3004;48.080;11.600;2023-02-13T08:51:20;68.50;;;6.43;;
5955;SDS011;3004;48.080;11.600;2023-02-13T08:53:48;68.70;;;6.80;;
5955;SDS011;3004;48.080;11.600;2023-02-13T08:56:15;68.80;;;6.40;;
5955;SDS011;3004;48.080;11.600;2023-02-13T08:58:46;69.27;;;7.30;;
5955;SDS011;3004;48.080;11.600;2023-02-13T09:01:14;68.50;;;6.17;;
5955;SDS011;3004;48.080;11.600;2023-02-13T09:03:41;69.53;;;7.27;;
5955;SDS011;3004;48.080;11.600;2023-02-13T09:06:10;68.57;;;6.03;;
5955;SDS011;3004;48.080;11.600;2023-02-13T09:08:38;68.77;;;7.07;;
5955;SDS011;3004;48.080;11.600;2023-02-13T09:11:08;68.40;;;6.07;;
5955;SDS011;3004;48.080;11.600;2023-02-13T09:13:37;87.13;;;8.57;;
5955;SDS011;3004;48.080;11.600;2023-02-13T09:16:06;68.43;;;6.50;;
5955;SDS011;3004;48.080;11.600;2023-02-13T09:18:34;69.70;;;7.10;;
5955;SDS011;3004;48.080;11.600;2023-02-13T09:21:02;68.20;;;6.30;;
5955;SDS011;3004;48.080;11.600;2023-02-13T09:23:30;69.37;;;6.50;;
5955;SDS011;3004;48.080;11.600;2023-02-13T09:25:58;68.70;;;6.60;;
5955;SDS011;3004;48.080;11.600;2023-02-13T09:28:28;68.87;;;6.97;;
5955;SDS011;3004;48.080;11.600;2023-02-13T09:30:55;68.07;;;6.00;;
5955;SDS011;3004;48.080;11.600;2023-02-13T09:36:22;67.67;;;5.73;;
5955;SDS011;3004;48.080;11.600;2023-02-13T09:38:50;69.67;;;6.77;;
5955;SDS011;3004;48.080;11.600;2023-02-13T09:41:20;69.03;;;6.30;;
5955;SDS011;3004;48.080;11.600;2023-02-13T09:43:53;68.27;;;5.90;;
5955;SDS011;3004;48.080;11.600;2023-02-13T09:46:27;71.00;;;6.37;;
5955;SDS011;3004;48.080;11.600;2023-02-13T09:48:58;68.83;;;6.93;;
5955;SDS011;3004;48.080;11.600;2023-02-13T09:51:30;68.97;;;6.87;;
5955;SDS011;3004;48.080;11.600;2023-02-13T09:53:58;70.83;;;8.27;;
5955;SDS011;3004;48.080;11.600;2023-02-13T09:56:33;68.40;;;6.40;;
5955;SDS011;3004;48.080;11.600;2023-02-13T09:59:23;72.20;;;8.40;;
5955;SDS011;3004;48.080;11.600;2023-02-13T10:02:13;69.87;;;7.60;;
5955;SDS011;3004;48.080;11.600;2023-02-13T10:04:51;68.60;;;6.30;;
5955;SDS011;3004;48.080;11.600;2023-02-13T10:07:29;68.60;;;6.60;;
5955;SDS011;3004;48.080;11.600;2023-02-13T10:10:19;68.67;;;6.23;;
5955;SDS011;3004;48.080;11.600;2023-02-13T10:13:12;68.67;;;6.30;;
5955;SDS011;3004;48.080;11.600;2023-02-13T10:15:50;68.80;;;6.77;;
5955;SDS011;3004;48.080;11.600;2023-02-13T10:18:22;68.97;;;7.43;;
5955;SDS011;3004;48.080;11.600;2023-02-13T10:21:11;68.17;;;6.20;;
5955;SDS011;3004;48.080;11.600;2023-02-13T10:24:32;68.60;;;6.27;;
5955;SDS011;3004;48.080;11.600;2023-02-13T10:27:03;68.40;;;6.20;;
5955;SDS011;3004;48.080;11.600;2023-02-13T10:29:42;80.33;;;10.37;;
5955;SDS011;3004;48.080;11.600;2023-02-13T10:32:37;68.67;;;6.07;;
5955;SDS011;3004;48.080;11.600;2023-02-13T10:35:17;68.60;;;6.23;;
5955;SDS011;3004;48.080;11.600;2023-02-13T10:37:49;68.47;;;6.50;;
5955;SDS011;3004;48.080;11.600;2023-02-13T10:40:19;68.77;;;7.43;;
5955;SDS011;3004;48.080;11.600;2023-02-13T10:42:49;68.27;;;6.07;;
5955;SDS011;3004;48.080;11.600;2023-02-13T10:45:27;68.40;;;6.03;;
5955;SDS011;3004;48.080;11.600;2023-02-13T10:48:11;68.10;;;6.30;;
5955;SDS011;3004;48.080;11.600;2023-02-13T10:50:52;68.80;;;6.90;;
5955;SDS011;3004;48.080;11.600;2023-02-13T10:53:29;69.07;;;6.57;;
5955;SDS011;3004;48.080;11.600;2023-02-13T10:58:56;68.17;;;5.80;;
5955;SDS011;3004;48.080;11.600;2023-02-13T11:01:36;67.67;;;5.73;;
5955;SDS011;3004;48.080;11.600;2023-02-13T11:04:12;67.60;;;5.40;;
5955;SDS011;3004;48.080;11.600;2023-02-13T11:06:42;67.77;;;5.63;;
5955;SDS011;3004;48.080;11.600;2023-02-13T11:09:16;68.80;;;6.87;;
5955;SDS011;3004;48.080;11.600;2023-02-13T11:11:43;68.20;;;5.50;;
5955;SDS011;3004;48.080;11.600;2023-02-13T11:14:12;68.60;;;6.17;;
5955;SDS011;3004;48.080;11.600;2023-02-13T11:16:46;69.33;;;7.50;;
5955;SDS011;3004;48.080;11.600;2023-02-13T11:19:23;67.17;;;5.10;;
5955;SDS011;3004;48.080;11.600;2023-02-13T11:21:56;69.00;;;6.33;;
5955;SDS011;3004;48.080;11.600;2023-02-13T11:24:27;67.10;;;5.07;;
5955;SDS011;3004;48.080;11.600;2023-02-13T11:26:59;67.27;;;5.13;;
5955;SDS011;3004;48.080;11.600;2023-02-13T11:29:34;67.20;;;5.50;;
5955;SDS011;3004;48.080;11.600;2023-02-13T11:32:04;73.73;;;6.33;;
5955;SDS011;3004;48.080;11.600;2023-02-13T11:34:44;67.40;;;5.40;;
5955;SDS011;3004;48.080;11.600;2023-02-13T11:37:19;70.40;;;6.67;;
5955;SDS011;3004;48.080;11.600;2023-02-13T11:43:05;67.63;;;5.60;;
5955;SDS011;3004;48.080;11.600;2023-02-13T11:45:33;67.40;;;5.17;;
5955;SDS011;3004;48.080;11.600;2023-02-13T11:48:01;70.17;;;5.63;;
5955;SDS011;3004;48.080;11.600;2023-02-13T11:50:44;67.10;;;4.97;;
5955;SDS011;3004;48.080;11.600;2023-02-13T11:53:18;69.00;;;6.13;;
5955;SDS011;3004;48.080;11.600;2023-02-13T11:55:59;70.97;;;5.97;;
5955;SDS011;3004;48.080;11.600;2023-02-13T11:58:29;67.10;;;4.80;;
5955;SDS011;3004;48.080;11.600;2023-02-13T12:03:57;66.80;;;4.87;;
5955;SDS011;3004;48.080;11.600;2023-02-13T12:06:30;67.30;;;5.17;;
5955;SDS011;3004;48.080;11.600;2023-02-13T12:09:03;67.50;;;5.00;;
5955;SDS011;3004;48.080;11.600;2023-02-13T12:11:38;67.30;;;4.83;;
5955;SDS011;3004;48.080;11.600;2023-02-13T12:14:09;66.90;;;4.87;;
5955;SDS011;3004;48.080;11.600;2023-02-13T12:16:42;67.30;;;4.90;;
5955;SDS011;3004;48.080;11.600;2023-02-13T12:19:16;68.20;;;5.60;;
5955;SDS011;3004;48.080;11.600;2023-02-13T12:22:04;67.10;;;4.73;;
5955;SDS011;3004;48.080;11.600;2023-02-13T12:27:55;74.03;;;10.77;;
5955;SDS011;3004;48.080;11.600;2023-02-13T12:30:42;67.07;;;4.90;;
5955;SDS011;3004;48.080;11.600;2023-02-13T12:33:39;66.63;;;4.10;;
5955;SDS011;3004;48.080;11.600;2023-02-13T12:36:30;66.67;;;4.70;;
5955;SDS011;3004;48.080;11.600;2023-02-13T12:39:08;66.47;;;4.00;;
5955;SDS011;3004;48.080;11.600;2023-02-13T12:41:48;68.87;;;7.33;;
5955;SDS011;3004;48.080;11.600;2023-02-13T12:44:30;67.03;;;4.97;;
5955;SDS011;3004;48.080;11.600;2023-02-13T12:47:09;66.37;;;4.10;;
5955;SDS011;3004;48.080;11.600;2023-02-13T12:49:54;66.77;;;4.57;;
5955;SDS011;3004;48.080;11.600;2023-02-13T12:55:48;66.87;;;4.60;;
5955;SDS011;3004;48.080;11.600;2023-02-13T12:58:45;69.03;;;6.20;;
5955;SDS011;3004;48.080;11.600;2023-02-13T13:01:25;66.97;;;4.80;;
5955;SDS011;3004;48.080;11.600;2023-02-13T13:04:22;66.90;;;4.80;;
5955;SDS011;3004;48.080;11.600;2023-02-13T13:07:11;66.97;;;4.40;;
5955;SDS011;3004;48.080;11.600;2023-02-13T13:09:56;66.77;;;4.20;;
5955;SDS011;3004;48.080;11.600;2023-02-13T13:12:41;67.07;;;4.40;;
5955;SDS011;3004;48.080;11.600;2023-02-13T13:15:16;66.67;;;3.90;;
5955;SDS011;3004;48.080;11.600;2023-02-13T13:17:56;66.83;;;4.40;;
5955;SDS011;3004;48.080;11.600;2023-02-13T13:20:36;66.40;;;3.90;;
5955;SDS011;3004;48.080;11.600;2023-02-13T13:23:24;67.50;;;5.27;;
5955;SDS011;3004;48.080;11.600;2023-02-13T13:25:59;67.10;;;4.70;;
5955;SDS011;3004;48.080;11.600;2023-02-13T13:28:36;66.50;;;3.87;;
5955;SDS011;3004;48.080;11.600;2023-02-13T13:31:06;68.57;;;6.53;;
5955;SDS011;3004;48.080;11.600;2023-02-13T13:33:34;66.63;;;3.67;;
5955;SDS011;3004;48.080;11.600;2023-02-13T13:36:06;66.17;;;4.10;;
5955;SDS011;3004;48.080;11.600;2023-02-13T13:38:41;66.23;;;3.80;;
5955;SDS011;3004;48.080;11.600;2023-02-13T13:41:18;66.07;;;3.80;;
5955;SDS011;3004;48.080;11.600;2023-02-13T13:44:00;67.30;;;5.43;;
5955;SDS011;3004;48.080;11.600;2023-02-13T13:46:43;66.47;;;4.10;;
5955;SDS011;3004;48.080;11.600;2023-02-13T13:49:24;70.60;;;5.43;;
5955;SDS011;3004;48.080;11.600;2023-02-13T13:54:55;67.40;;;5.23;;
5955;SDS011;3004;48.080;11.600;2023-02-13T13:57:24;66.17;;;3.60;;
5955;SDS011;3004;48.080;11.600;2023-02-13T14:03:19;71.30;;;5.60;;
5955;SDS011;3004;48.080;11.600;2023-02-13T14:05:59;65.87;;;3.43;;
5955;SDS011;3004;48.080;11.600;2023-02-13T14:18:17;66.67;;;4.33;;
5955;SDS011;3004;48.080;11.600;2023-02-13T14:20:50;66.00;;;3.40;;
5955;SDS011;3004;48.080;11.600;2023-02-13T14:23:25;66.07;;;3.37;;
5955;SDS011;3004;48.080;11.600;2023-02-13T14:29:15;67.20;;;4.60;;
5955;SDS011;3004;48.080;11.600;2023-02-13T14:32:01;68.10;;;5.80;;
5955;SDS011;3004;48.080;11.600;2023-02-13T14:34:33;66.10;;;4.03;;
5955;SDS011;3004;48.080;11.600;2023-02-13T14:37:13;66.50;;;4.03;;
5955;SDS011;3004;48.080;11.600;2023-02-13T14:42:55;66.60;;;4.33;;
5955;SDS011;3004;48.080;11.600;2023-02-13T14:45:26;71.13;;;6.13;;
5955;SDS011;3004;48.080;11.600;2023-02-13T14:47:57;66.00;;;3.80;;
5955;SDS011;3004;48.080;11.600;2023-02-13T14:50:33;66.30;;;3.80;;
5955;SDS011;3004;48.080;11.600;2023-02-13T14:53:17;66.47;;;4.00;;
5955;SDS011;3004;48.080;11.600;2023-02-13T14:55:50;66.40;;;4.10;;
5955;SDS011;3004;48.080;11.600;2023-02-13T14:58:22;66.77;;;4.20;;
5955;SDS011;3004;48.080;11.600;2023-02-13T15:00:54;67.07;;;4.60;;
5955;SDS011;3004;48.080;11.600;2023-02-13T15:03:27;71.80;;;5.00;;
5955;SDS011;3004;48.080;11.600;2023-02-13T15:06:02;66.30;;;3.97;;
5955;SDS011;3004;48.080;11.600;2023-02-13T15:08:31;66.60;;;3.90;;
5955;SDS011;3004;48.080;11.600;2023-02-13T15:11:02;66.77;;;4.00;;
5955;SDS011;3004;48.080;11.600;2023-02-13T15:13:49;66.57;;;4.00;;
5955;SDS011;3004;48.080;11.600;2023-02-13T15:16:16;68.23;;;5.90;;
5955;SDS011;3004;48.080;11.600;2023-02-13T15:18:44;67.90;;;5.60;;
5955;SDS011;3004;48.080;11.600;2023-02-13T15:21:33;68.00;;;5.70;;
5955;SDS011;3004;48.080;11.600;2023-02-13T15:47:22;69.90;;;5.83;;
5955;SDS011;3004;48.080;11.600;2023-02-13T15:49:56;69.50;;;6.83;;
5955;SDS011;3004;48.080;11.600;2023-02-13T15:52:28;67.20;;;5.23;;
5955;SDS011;3004;48.080;11.600;2023-02-13T15:58:38;67.93;;;5.90;;
5955;SDS011;3004;48.080;11.600;2023-02-13T16:01:07;67.00;;;4.40;;
5955;SDS011;3004;48.080;11.600;2023-02-13T16:03:35;67.73;;;4.93;;
5955;SDS011;3004;48.080;11.600;2023-02-13T16:06:06;67.87;;;5.80;;
5955;SDS011;3004;48.080;11.600;2023-02-13T16:08:42;69.70;;;7.03;;
5955;SDS011;3004;48.080;11.600;2023-02-13T16:11:23;67.03;;;4.40;;
5955;SDS011;3004;48.080;11.600;2023-02-13T16:27:30;67.07;;;4.50;;
5955;SDS011;3004;48.080;11.600;2023-02-13T16:30:00;67.57;;;5.10;;
5955;SDS011;3004;48.080;11.600;2023-02-13T16:32:29;67.47;;;4.60;;
5955;SDS011;3004;48.080;11.600;2023-02-13T16:37:49;67.30;;;4.70;;
5955;SDS011;3004;48.080;11.600;2023-02-13T16:40:34;67.20;;;4.70;;
5955;SDS011;3004;48.080;11.600;2023-02-13T16:46:21;68.07;;;5.80;;
5955;SDS011;3004;48.080;11.600;2023-02-13T16:49:15;68.70;;;6.60;;
5955;SDS011;3004;48.080;11.600;2023-02-13T16:51:48;67.37;;;4.80;;
5955;SDS011;3004;48.080;11.600;2023-02-13T16:54:30;68.40;;;5.87;;
5955;SDS011;3004;48.080;11.600;2023-02-13T16:57:02;67.47;;;5.10;;
5955;SDS011;3004;48.080;11.600;2023-02-13T16:59:38;73.37;;;6.40;;